PDT,Max TemperatureF,Mean TemperatureF,Min TemperatureF,Max Dew PointF,MeanDew PointF,Min DewpointF,Max Humidity, Mean Humidity, Min Humidity, Max Sea Level PressureIn, Mean Sea Level PressureIn, Min Sea Level PressureIn, Max VisibilityMiles, Mean VisibilityMiles, Min VisibilityMiles, Max Wind SpeedMPH, Mean Wind SpeedMPH, Max Gust SpeedMPH,PrecipitationIn, CloudCover, Events, WindDirDegrees
2011-10-1,68,59,50,50,49,46,100,73,46,30.09,30.05,29.99,10.0,9.1,3.0,8,4,,0.00,2,,166
2011-10-2,69,61,53,50,47,43,88,67,43,30.12,30.07,30.03,10.0,10.0,10.0,9,2,,0.00,0,,153
2011-10-3,64,57,50,48,44,37,94,66,37,30.02,29.96,29.92,10.0,9.9,9.0,7,2,,0.00,4,,160
2011-10-4,57,52,46,50,47,45,100,88,63,29.94,29.89,29.73,10.0,7.1,0.2,10,2,20,0.29,8,,175
2011-10-5,50,46,44,48,45,39,100,95,66,29.76,29.67,29.58,10.0,4.2,0.2,13,8,32,1.29,8,,194
2011-10-6,66,60,55,57,53,48,100,76,52,30.15,30.14,30.13,10.0,10.0,10.0,7,3,,0.00,2,,87
2011-10-7,62,58,55,46,32,16,67,40,16,30.15,30.14,30.13,10.0,10.0,10.0,6,2,,0.00,0,,13
2011-10-8,78,71,64,52,45,36,56,39,24,30.09,30.02,29.98,10.0,10.0,9.0,6,1,,0.00,0,,256
2011-10-9,75,70,64,50,44,41,56,40,33,29.99,29.98,29.96,10.0,10.0,10.0,7,3,,0.00,0,,113
2011-10-10,78,71,64,55,49,39,73,47,26,30.21,30.17,30.13,10.0,10.0,10.0,7,1,,0.00,0,,352
2011-10-11,71,65,62,48,43,41,59,45,35,30.17,30.16,30.15,10.0,10.0,10.0,8,4,,0.00,0,,103
2011-10-12,69,66,62,55,50,46,77,56,46,30.05,30.04,30.03,10.0,9.8,8.0,8,4,,0.00,0,,299
2011-10-13,69,62,55,52,48,43,77,60,38,30.13,30.07,30.02,10.0,10.0,10.0,8,1,,0.00,0,,204
2011-10-14,73,64,55,54,47,39,77,58,31,30.23,30.18,30.14,10.0,10.0,9.0,8,1,,0.00,0,,320
2011-10-15,75,66,57,54,43,28,68,46,24,30.22,30.17,30.12,10.0,10.0,8.0,6,0,,0.00,0,,351
2011-10-16,75,68,62,50,42,34,59,39,29,30.12,30.09,30.05,10.0,10.0,10.0,7,3,,0.00,0,,114
2011-10-17,69,63,57,50,40,28,77,45,26,30.07,30.05,30.02,10.0,10.0,10.0,8,2,,0.00,0,,132
2011-10-18,62,56,51,50,41,14,82,59,21,30.10,30.06,30.04,10.0,10.0,9.0,12,2,16,0.00,0,,317
2011-10-19,64,54,44,32,18,7,47,24,14,30.14,30.10,30.08,10.0,10.0,10.0,12,3,17,0.00,0,,42
2011-10-20,62,55,48,39,31,14,58,41,24,30.13,30.10,30.08,10.0,10.0,9.0,7,1,,0.00,0,,104
2011-10-21,66,57,48,41,37,32,66,47,30,30.20,30.16,30.12,10.0,10.0,9.0,6,1,,0.00,0,,301
2011-10-22,71,62,53,46,35,23,63,40,20,30.21,30.17,30.13,10.0,9.7,4.0,7,0,,0.00,0,,299
2011-10-23,69,62,55,46,40,30,63,46,32,30.20,30.17,30.14,10.0,9.8,4.0,7,1,,0.00,0,,157
2011-10-24,71,63,55,48,42,32,72,49,28,30.16,30.10,30.05,10.0,10.0,8.0,7,1,,0.00,0,,274
2011-10-25,55,53,51,46,46,46,82,76,72,30.07,30.06,30.05,10.0,10.0,10.0,0,0,,0.00,0,,-1
2011-10-26,,,,,,,,,,,,,,,,,,,,,,
2011-10-27,,,,,,,,,,,,,,,,,,,,,,
2011-10-28,,,,,,,,,,,,,,,,,,,,,,
2011-10-29,,,,,,,,,,,,,,,,,,,,,,
2011-10-30,,,,,,,,,,,,,,,,,,,,,,
2011-10-31,,,,,,,,,,,,,,,,,,,,,,